Terminal Aerodrome Forecast
Issued by NWS

Home | Current Version | Previous Version | Text Only | Print | Product List | Glossary On
Versions: 1 2 3 4 5 6 7 8 9 10 11 12 13 14 15 16 17 18 19 20 21 22 23 24 25 26 27 28 29 30 31 32 33 34 35
000
FTUS44 KOUN 260520
TAFPNC
TAF
KPNC 260520Z 2606/2706 15012KT P6SM OVC200
     FM260900 15012KT P6SM BKN015
     FM261500 16010G18KT P6SM OVC015
     FM262100 17013G21KT P6SM BKN035
     FM270000 15013KT P6SM BKN035 PROB30 2700/2704 TS BKN025CB=

USA.gov is the U.S. government's official web portal to all federal, state and local government web resources and services.